sensor_id;sensor_type;location;lat;lon;timestamp;pressure;altitude;pressure_sealevel;temperature;humidity
57574;BME280;68988;49.000;21.242;2023-11-21T00:00:32;97874.91;;;22.35;40.88
57574;BME280;68988;49.000;21.242;2023-11-21T00:02:57;97875.69;;;22.36;40.88
57574;BME280;68988;49.000;21.242;2023-11-21T00:05:23;97873.31;;;22.34;40.96
57574;BME280;68988;49.000;21.242;2023-11-21T00:07:48;97881.03;;;22.36;40.90
57574;BME280;68988;49.000;21.242;2023-11-21T00:10:14;97879.44;;;22.35;40.83
57574;BME280;68988;49.000;21.242;2023-11-21T00:12:39;97882.66;;;22.32;41.09
57574;BME280;68988;49.000;21.242;2023-11-21T00:15:08;97890.13;;;22.35;41.09
57574;BME280;68988;49.000;21.242;2023-11-21T00:17:37;97883.44;;;22.38;40.95
57574;BME280;68988;49.000;21.242;2023-11-21T00:20:03;97880.25;;;22.35;41.02
57574;BME280;68988;49.000;21.242;2023-11-21T00:22:32;97871.69;;;22.33;40.90
57574;BME280;68988;49.000;21.242;2023-11-21T00:24:57;97880.81;;;22.32;40.99
57574;BME280;68988;49.000;21.242;2023-11-21T00:27:23;97879.44;;;22.35;40.81
57574;BME280;68988;49.000;21.242;2023-11-21T00:29:48;97879.19;;;22.31;41.04
57574;BME280;68988;49.000;21.242;2023-11-21T00:32:13;97888.81;;;22.32;40.91
57574;BME280;68988;49.000;21.242;2023-11-21T00:34:39;97878.41;;;22.31;40.73
57574;BME280;68988;49.000;21.242;2023-11-21T00:37:05;97877.59;;;22.30;41.09
57574;BME280;68988;49.000;21.242;2023-11-21T00:39:30;97878.13;;;22.32;40.94
57574;BME280;68988;49.000;21.242;2023-11-21T00:41:55;97880.25;;;22.35;40.83
57574;BME280;68988;49.000;21.242;2023-11-21T00:44:21;97867.44;;;22.32;41.12
57574;BME280;68988;49.000;21.242;2023-11-21T00:46:46;97871.19;;;22.31;40.98
57574;BME280;68988;49.000;21.242;2023-11-21T00:49:12;97880.81;;;22.32;40.75
57574;BME280;68988;49.000;21.242;2023-11-21T00:51:38;97871.19;;;22.31;41.16
57574;BME280;68988;49.000;21.242;2023-11-21T00:54:03;97870.13;;;22.32;40.79
57574;BME280;68988;49.000;21.242;2023-11-21T00:56:29;97874.38;;;22.33;40.75
57574;BME280;68988;49.000;21.242;2023-11-21T00:58:54;97874.38;;;22.33;40.74
57574;BME280;68988;49.000;21.242;2023-11-21T01:01:20;97864.78;;;22.32;40.82
57574;BME280;68988;49.000;21.242;2023-11-21T01:03:47;97867.16;;;22.29;40.85
57574;BME280;68988;49.000;21.242;2023-11-21T01:06:14;97866.91;;;22.30;40.91
57574;BME280;68988;49.000;21.242;2023-11-21T01:08:39;97873.31;;;22.29;40.96
57574;BME280;68988;49.000;21.242;2023-11-21T01:11:05;97865.28;;;22.29;40.80
57574;BME280;68988;49.000;21.242;2023-11-21T01:13:33;97872.25;;;22.30;40.89
57574;BME280;68988;49.000;21.242;2023-11-21T01:15:59;97877.59;;;22.30;41.08
57574;BME280;68988;49.000;21.242;2023-11-21T01:18:24;97880.81;;;22.32;40.99
57574;BME280;68988;49.000;21.242;2023-11-21T01:20:54;97882.09;;;22.30;40.93
57574;BME280;68988;49.000;21.242;2023-11-21T01:23:19;97890.94;;;22.30;40.93
57574;BME280;68988;49.000;21.242;2023-11-21T01:25:45;97890.13;;;22.30;40.82
57574;BME280;68988;49.000;21.242;2023-11-21T01:28:10;97895.47;;;22.30;40.99
57574;BME280;68988;49.000;21.242;2023-11-21T01:30:36;97901.88;;;22.29;40.99
57574;BME280;68988;49.000;21.242;2023-11-21T01:33:01;97890.41;;;22.28;41.03
57574;BME280;68988;49.000;21.242;2023-11-21T01:35:26;97877.59;;;22.30;40.72
57574;BME280;68988;49.000;21.242;2023-11-21T01:37:52;97868.50;;;22.31;40.89
57574;BME280;68988;49.000;21.242;2023-11-21T01:40:17;97878.41;;;22.31;40.93
57574;BME280;68988;49.000;21.242;2023-11-21T01:42:44;97874.38;;;22.28;40.75
57574;BME280;68988;49.000;21.242;2023-11-21T01:45:11;97879.72;;;22.28;40.75
57574;BME280;68988;49.000;21.242;2023-11-21T01:47:38;97878.66;;;22.29;40.67
57574;BME280;68988;49.000;21.242;2023-11-21T01:50:07;97878.09;;;22.27;40.97
57574;BME280;68988;49.000;21.242;2023-11-21T01:52:34;97877.31;;;22.27;40.85
57574;BME280;68988;49.000;21.242;2023-11-21T01:55:00;97869.81;;;22.29;40.81
57574;BME280;68988;49.000;21.242;2023-11-21T01:57:26;97869.81;;;22.29;40.93
57574;BME280;68988;49.000;21.242;2023-11-21T01:59:53;97867.97;;;22.29;40.86
57574;BME280;68988;49.000;21.242;2023-11-21T02:02:19;97863.69;;;22.28;40.84
57574;BME280;68988;49.000;21.242;2023-11-21T02:04:44;97858.34;;;22.28;40.84
57574;BME280;68988;49.000;21.242;2023-11-21T02:07:10;97866.38;;;22.28;41.08
57574;BME280;68988;49.000;21.242;2023-11-21T02:09:35;97856.47;;;22.29;40.68
57574;BME280;68988;49.000;21.242;2023-11-21T02:12:03;97865.56;;;22.28;40.95
57574;BME280;68988;49.000;21.242;2023-11-21T02:14:30;97864.47;;;22.29;40.99
57574;BME280;68988;49.000;21.242;2023-11-21T02:16:56;97862.91;;;22.28;40.73
57574;BME280;68988;49.000;21.242;2023-11-21T02:19:26;97869.03;;;22.28;40.79
57574;BME280;68988;49.000;21.242;2023-11-21T02:21:52;97874.38;;;22.28;40.87
57574;BME280;68988;49.000;21.242;2023-11-21T02:24:21;97873.59;;;22.28;40.75
57574;BME280;68988;49.000;21.242;2023-11-21T02:26:48;97880.50;;;22.29;41.01
57574;BME280;68988;49.000;21.242;2023-11-21T02:29:13;97881.59;;;22.28;40.73
57574;BME280;68988;49.000;21.242;2023-11-21T02:31:41;97884.00;;;22.29;40.81
57574;BME280;68988;49.000;21.242;2023-11-21T02:34:16;97871.19;;;22.26;40.68
57574;BME280;68988;49.000;21.242;2023-11-21T02:36:45;97868.78;;;22.25;40.73
57574;BME280;68988;49.000;21.242;2023-11-21T02:39:11;97871.19;;;22.26;40.86
57574;BME280;68988;49.000;21.242;2023-11-21T02:41:39;97882.38;;;22.28;40.72
57574;BME280;68988;49.000;21.242;2023-11-21T02:44:05;97882.16;;;22.25;41.01
57574;BME280;68988;49.000;21.242;2023-11-21T02:46:32;97878.66;;;22.24;40.69
57574;BME280;68988;49.000;21.242;2023-11-21T02:48:59;97884.00;;;22.24;40.94
57574;BME280;68988;49.000;21.242;2023-11-21T02:51:25;97877.31;;;22.27;40.77
57574;BME280;68988;49.000;21.242;2023-11-21T02:53:50;97881.88;;;22.26;40.80
57574;BME280;68988;49.000;21.242;2023-11-21T02:56:16;97867.97;;;22.24;40.90
57574;BME280;68988;49.000;21.242;2023-11-21T02:58:43;97865.31;;;22.24;40.85
57574;BME280;68988;49.000;21.242;2023-11-21T03:01:09;97871.75;;;22.23;40.95
57574;BME280;68988;49.000;21.242;2023-11-21T03:03:34;97877.88;;;22.24;40.61
57574;BME280;68988;49.000;21.242;2023-11-21T03:06:06;97877.88;;;22.24;40.94
57574;BME280;68988;49.000;21.242;2023-11-21T03:08:31;97877.06;;;22.23;40.92
57574;BME280;68988;49.000;21.242;2023-11-21T03:10:57;97888.53;;;22.24;40.82
57574;BME280;68988;49.000;21.242;2023-11-21T03:13:22;97890.69;;;22.22;41.04
57574;BME280;68988;49.000;21.242;2023-11-21T03:15:48;97888.53;;;22.24;40.51
57574;BME280;68988;49.000;21.242;2023-11-21T03:18:13;97877.88;;;22.24;40.66
57574;BME280;68988;49.000;21.242;2023-11-21T03:20:39;97877.06;;;22.23;40.35
57574;BME280;68988;49.000;21.242;2023-11-21T03:23:04;97877.88;;;22.24;40.84
57574;BME280;68988;49.000;21.242;2023-11-21T03:25:30;97884.00;;;22.24;40.70
57574;BME280;68988;49.000;21.242;2023-11-21T03:27:56;97886.16;;;22.22;40.90
57574;BME280;68988;49.000;21.242;2023-11-21T03:30:21;97873.59;;;22.23;40.70
57574;BME280;68988;49.000;21.242;2023-11-21T03:32:47;97880.53;;;22.24;40.81
57574;BME280;68988;49.000;21.242;2023-11-21T03:35:12;97875.97;;;22.24;40.81
57574;BME280;68988;49.000;21.242;2023-11-21T03:37:38;97877.88;;;22.24;40.54
57574;BME280;68988;49.000;21.242;2023-11-21T03:40:07;97887.75;;;22.23;40.57
57574;BME280;68988;49.000;21.242;2023-11-21T03:42:33;97890.94;;;22.25;40.89
57574;BME280;68988;49.000;21.242;2023-11-21T03:44:58;97888.81;;;22.22;40.89
57574;BME280;68988;49.000;21.242;2023-11-21T03:47:26;97891.50;;;22.22;40.87
57574;BME280;68988;49.000;21.242;2023-11-21T03:49:51;97897.63;;;22.23;40.70
57574;BME280;68988;49.000;21.242;2023-11-21T03:52:17;97893.09;;;22.23;40.83
57574;BME280;68988;49.000;21.242;2023-11-21T03:54:42;97896.84;;;22.22;40.76
57574;BME280;68988;49.000;21.242;2023-11-21T03:57:08;97889.59;;;22.23;40.70
57574;BME280;68988;49.000;21.242;2023-11-21T03:59:34;97900.84;;;22.25;40.76
57574;BME280;68988;49.000;21.242;2023-11-21T04:02:00;97894.94;;;22.23;40.77
57574;BME280;68988;49.000;21.242;2023-11-21T04:04:25;97896.03;;;22.22;40.65
57574;BME280;68988;49.000;21.242;2023-11-21T04:06:50;97897.91;;;22.21;40.82
57574;BME280;68988;49.000;21.242;2023-11-21T04:09:17;97889.09;;;22.21;40.81
57574;BME280;68988;49.000;21.242;2023-11-21T04:11:42;97894.16;;;22.22;40.71
57574;BME280;68988;49.000;21.242;2023-11-21T04:14:10;97893.09;;;22.23;40.76
57574;BME280;68988;49.000;21.242;2023-11-21T04:16:36;97894.94;;;22.23;40.61
57574;BME280;68988;49.000;21.242;2023-11-21T04:19:01;97894.16;;;22.22;40.77
57574;BME280;68988;49.000;21.242;2023-11-21T04:21:27;97881.31;;;22.24;40.69
57574;BME280;68988;49.000;21.242;2023-11-21T04:23:52;97877.06;;;22.23;40.90
57574;BME280;68988;49.000;21.242;2023-11-21T04:26:17;97878.13;;;22.22;40.63
57574;BME280;68988;49.000;21.242;2023-11-21T04:28:43;97871.47;;;22.20;40.77
57574;BME280;68988;49.000;21.242;2023-11-21T04:31:08;97873.88;;;22.21;40.82
57574;BME280;68988;49.000;21.242;2023-11-21T04:33:33;97869.34;;;22.22;40.73
57574;BME280;68988;49.000;21.242;2023-11-21T04:35:59;97866.94;;;22.20;40.69
57574;BME280;68988;49.000;21.242;2023-11-21T04:38:24;97873.06;;;22.21;40.76
57574;BME280;68988;49.000;21.242;2023-11-21T04:40:50;97884.53;;;22.21;40.58
57574;BME280;68988;49.000;21.242;2023-11-21T04:43:16;97881.59;;;22.23;40.65
57574;BME280;68988;49.000;21.242;2023-11-21T04:45:41;97885.38;;;22.22;40.74
57574;BME280;68988;49.000;21.242;2023-11-21T04:48:07;97882.16;;;22.20;40.69
57574;BME280;68988;49.000;21.242;2023-11-21T04:50:34;97884.53;;;22.21;40.51
57574;BME280;68988;49.000;21.242;2023-11-21T04:52:59;97873.88;;;22.21;40.79
57574;BME280;68988;49.000;21.242;2023-11-21T04:55:24;97873.88;;;22.21;40.57
57574;BME280;68988;49.000;21.242;2023-11-21T04:57:53;97871.75;;;22.23;40.74
57574;BME280;68988;49.000;21.242;2023-11-21T05:00:18;97872.00;;;22.22;40.73
57574;BME280;68988;49.000;21.242;2023-11-21T05:02:45;97879.75;;;22.18;40.75
57574;BME280;68988;49.000;21.242;2023-11-21T05:05:10;97885.63;;;22.20;40.68
57574;BME280;68988;49.000;21.242;2023-11-21T05:07:36;97889.88;;;22.21;40.58
57574;BME280;68988;49.000;21.242;2023-11-21T05:10:01;97888.81;;;22.22;40.77
57574;BME280;68988;49.000;21.242;2023-11-21T05:12:31;97898.44;;;22.23;40.77
57574;BME280;68988;49.000;21.242;2023-11-21T05:15:00;97901.09;;;22.23;40.70
57574;BME280;68988;49.000;21.242;2023-11-21T05:17:26;97900.28;;;22.28;40.99
57574;BME280;68988;49.000;21.242;2023-11-21T05:19:51;97902.16;;;22.27;40.67
57574;BME280;68988;49.000;21.242;2023-11-21T05:22:16;97902.97;;;22.28;40.75
57574;BME280;68988;49.000;21.242;2023-11-21T05:24:42;97909.09;;;22.28;40.74
57574;BME280;68988;49.000;21.242;2023-11-21T05:27:07;97906.97;;;22.30;40.74
57574;BME280;68988;49.000;21.242;2023-11-21T05:29:34;97916.59;;;22.31;40.52
57574;BME280;68988;49.000;21.242;2023-11-21T05:32:00;97912.03;;;22.32;40.70
57574;BME280;68988;49.000;21.242;2023-11-21T05:34:25;97917.38;;;22.37;40.60
57574;BME280;68988;49.000;21.242;2023-11-21T05:36:51;97917.28;;;21.56;36.20
57574;BME280;68988;49.000;21.242;2023-11-21T05:39:16;97929.06;;;17.85;40.69
57574;BME280;68988;49.000;21.242;2023-11-21T05:41:45;97935.88;;;17.81;42.77
57574;BME280;68988;49.000;21.242;2023-11-21T05:44:11;97929.94;;;19.28;41.90
57574;BME280;68988;49.000;21.242;2023-11-21T05:46:39;97931.09;;;20.18;40.60
57574;BME280;68988;49.000;21.242;2023-11-21T05:49:05;97927.84;;;20.74;39.72
57574;BME280;68988;49.000;21.242;2023-11-21T05:51:31;97932.72;;;21.13;39.14
57574;BME280;68988;49.000;21.242;2023-11-21T05:53:56;97937.28;;;21.38;38.88
57574;BME280;68988;49.000;21.242;2023-11-21T05:56:21;97944.22;;;21.60;38.61
57574;BME280;68988;49.000;21.242;2023-11-21T05:58:47;97944.50;;;21.74;38.44
57574;BME280;68988;49.000;21.242;2023-11-21T06:01:12;97936.19;;;21.86;38.25
57574;BME280;68988;49.000;21.242;2023-11-21T06:03:38;97947.13;;;21.94;38.50
57574;BME280;68988;49.000;21.242;2023-11-21T06:06:04;97953.50;;;22.04;38.29
57574;BME280;68988;49.000;21.242;2023-11-21T06:08:30;97955.09;;;22.10;38.39
57574;BME280;68988;49.000;21.242;2023-11-21T06:10:55;97958.28;;;22.17;38.41
57574;BME280;68988;49.000;21.242;2023-11-21T06:13:20;97967.09;;;22.17;38.12
57574;BME280;68988;49.000;21.242;2023-11-21T06:15:49;97975.88;;;22.23;38.25
57574;BME280;68988;49.000;21.242;2023-11-21T06:18:15;97981.19;;;22.28;38.43
57574;BME280;68988;49.000;21.242;2023-11-21T06:20:41;97982.25;;;22.27;38.34
57574;BME280;68988;49.000;21.242;2023-11-21T06:23:06;97989.75;;;22.30;38.33
57574;BME280;68988;49.000;21.242;2023-11-21T06:25:32;97992.16;;;22.32;38.38
57574;BME280;68988;49.000;21.242;2023-11-21T06:28:01;97992.97;;;22.32;38.55
57574;BME280;68988;49.000;21.242;2023-11-21T06:30:26;97991.91;;;22.33;38.52
57574;BME280;68988;49.000;21.242;2023-11-21T06:32:52;97991.34;;;22.37;38.67
57574;BME280;68988;49.000;21.242;2023-11-21T06:35:18;98001.50;;;22.34;38.80
57574;BME280;68988;49.000;21.242;2023-11-21T06:37:43;98006.84;;;22.40;38.59
57574;BME280;68988;49.000;21.242;2023-11-21T06:40:13;98006.84;;;22.40;38.77
57574;BME280;68988;49.000;21.242;2023-11-21T06:42:40;98005.78;;;22.41;38.78
57574;BME280;68988;49.000;21.242;2023-11-21T06:45:07;98008.16;;;22.42;38.72
57574;BME280;68988;49.000;21.242;2023-11-21T06:47:32;98005.22;;;22.44;38.63
57574;BME280;68988;49.000;21.242;2023-11-21T06:49:58;98002.03;;;22.42;38.83
57574;BME280;68988;49.000;21.242;2023-11-21T06:52:24;98006.84;;;22.45;38.71
57574;BME280;68988;49.000;21.242;2023-11-21T06:54:49;98005.22;;;22.44;38.91
57574;BME280;68988;49.000;21.242;2023-11-21T06:57:15;98010.31;;;22.45;38.92
57574;BME280;68988;49.000;21.242;2023-11-21T06:59:41;98019.09;;;22.46;39.03
57574;BME280;68988;49.000;21.242;2023-11-21T07:02:07;98012.19;;;22.45;39.16
57574;BME280;68988;49.000;21.242;2023-11-21T07:04:33;98020.97;;;22.50;39.75
57574;BME280;68988;49.000;21.242;2023-11-21T07:06:59;98029.78;;;22.56;39.99
57574;BME280;68988;49.000;21.242;2023-11-21T07:09:24;98025.50;;;22.60;39.99
57574;BME280;68988;49.000;21.242;2023-11-21T07:11:51;98032.16;;;22.63;40.11
57574;BME280;68988;49.000;21.242;2023-11-21T07:14:17;98028.13;;;22.65;40.17
57574;BME280;68988;49.000;21.242;2023-11-21T07:16:45;98024.41;;;22.66;40.13
57574;BME280;68988;49.000;21.242;2023-11-21T07:19:10;98022.00;;;22.65;40.28
57574;BME280;68988;49.000;21.242;2023-11-21T07:21:37;98013.16;;;22.64;40.26
57574;BME280;68988;49.000;21.242;2023-11-21T07:24:05;98011.03;;;22.66;40.06
57574;BME280;68988;49.000;21.242;2023-11-21T07:26:31;98002.19;;;22.66;40.09
57574;BME280;68988;49.000;21.242;2023-11-21T07:28:59;98002.19;;;22.71;39.99
57574;BME280;68988;49.000;21.242;2023-11-21T07:31:24;97999.53;;;22.71;40.37
57574;BME280;68988;49.000;21.242;2023-11-21T07:33:50;98000.56;;;22.75;40.23
57574;BME280;68988;49.000;21.242;2023-11-21T07:36:16;98003.78;;;22.77;40.39
57574;BME280;68988;49.000;21.242;2023-11-21T07:38:46;97998.44;;;22.77;40.79
57574;BME280;68988;49.000;21.242;2023-11-21T07:41:12;98003.50;;;22.79;40.91
57574;BME280;68988;49.000;21.242;2023-11-21T07:43:41;97998.44;;;22.77;41.07
57574;BME280;68988;49.000;21.242;2023-11-21T07:46:06;98000.00;;;22.78;41.08
57574;BME280;68988;49.000;21.242;2023-11-21T07:48:33;97993.09;;;22.77;40.88
57574;BME280;68988;49.000;21.242;2023-11-21T07:50:59;97988.53;;;22.78;40.85
57574;BME280;68988;49.000;21.242;2023-11-21T07:53:25;97991.72;;;22.80;40.66
57574;BME280;68988;49.000;21.242;2023-11-21T07:55:51;97994.94;;;22.82;40.46
57574;BME280;68988;49.000;21.242;2023-11-21T07:58:17;97996.00;;;22.81;40.61
57574;BME280;68988;49.000;21.242;2023-11-21T08:00:42;97990.38;;;22.82;40.77
57574;BME280;68988;49.000;21.242;2023-11-21T08:03:07;97991.16;;;22.83;40.82
57574;BME280;68988;49.000;21.242;2023-11-21T08:05:33;97993.56;;;22.84;40.81
57574;BME280;68988;49.000;21.242;2023-11-21T08:07:59;97992.78;;;22.84;40.91
57574;BME280;68988;49.000;21.242;2023-11-21T08:10:25;98001.31;;;22.86;41.19
57574;BME280;68988;49.000;21.242;2023-11-21T08:12:51;97999.97;;;22.88;41.13
57574;BME280;68988;49.000;21.242;2023-11-21T08:15:16;97991.66;;;22.90;41.25
57574;BME280;68988;49.000;21.242;2023-11-21T08:17:42;97999.16;;;22.93;41.26
57574;BME280;68988;49.000;21.242;2023-11-21T08:20:07;97996.47;;;22.93;40.99
57574;BME280;68988;49.000;21.242;2023-11-21T08:22:35;97997.03;;;22.90;41.22
57574;BME280;68988;49.000;21.242;2023-11-21T08:25:01;98001.81;;;22.93;41.24
57574;BME280;68988;49.000;21.242;2023-11-21T08:27:29;97995.69;;;22.93;41.44
57574;BME280;68988;49.000;21.242;2023-11-21T08:29:54;97997.25;;;22.94;41.48
57574;BME280;68988;49.000;21.242;2023-11-21T08:32:20;97996.97;;;22.95;41.33
57574;BME280;68988;49.000;21.242;2023-11-21T08:34:45;98001.25;;;22.96;41.60
57574;BME280;68988;49.000;21.242;2023-11-21T08:37:10;98002.88;;;22.97;41.43
57574;BME280;68988;49.000;21.242;2023-11-21T08:39:39;98001.25;;;22.96;41.53
57574;BME280;68988;49.000;21.242;2023-11-21T08:42:05;98002.88;;;22.97;41.49
57574;BME280;68988;49.000;21.242;2023-11-21T08:44:31;98010.91;;;22.97;41.65
57574;BME280;68988;49.000;21.242;2023-11-21T08:46:56;98013.81;;;23.01;42.01
57574;BME280;68988;49.000;21.242;2023-11-21T08:49:22;98011.94;;;23.01;41.74
57574;BME280;68988;49.000;21.242;2023-11-21T08:51:47;98018.38;;;23.00;41.59
57574;BME280;68988;49.000;21.242;2023-11-21T08:54:12;98024.50;;;23.01;41.83
57574;BME280;68988;49.000;21.242;2023-11-21T08:56:38;98022.09;;;22.99;41.85
57574;BME280;68988;49.000;21.242;2023-11-21T08:59:03;98027.19;;;23.01;42.00
57574;BME280;68988;49.000;21.242;2023-11-21T09:01:29;98024.50;;;23.01;41.94
57574;BME280;68988;49.000;21.242;2023-11-21T09:03:57;98022.91;;;23.00;41.99
57574;BME280;68988;49.000;21.242;2023-11-21T09:06:23;98021.31;;;22.99;41.79
57574;BME280;68988;49.000;21.242;2023-11-21T09:08:48;98016.22;;;23.02;42.04
57574;BME280;68988;49.000;21.242;2023-11-21T09:11:13;98020.22;;;23.00;42.30
57574;BME280;68988;49.000;21.242;2023-11-21T09:13:39;98029.84;;;23.01;42.05
57574;BME280;68988;49.000;21.242;2023-11-21T09:16:04;98016.75;;;22.99;42.13
57574;BME280;68988;49.000;21.242;2023-11-21T09:18:31;98028.25;;;23.00;42.20
57574;BME280;68988;49.000;21.242;2023-11-21T09:20:56;98027.97;;;23.01;41.93
57574;BME280;68988;49.000;21.242;2023-11-21T09:23:21;98027.41;;;23.04;42.10
57574;BME280;68988;49.000;21.242;2023-11-21T09:25:47;98018.31;;;23.05;42.27
57574;BME280;68988;49.000;21.242;2023-11-21T09:28:15;98008.41;;;23.06;42.52
57574;BME280;68988;49.000;21.242;2023-11-21T09:30:40;98006.56;;;23.06;42.74
57574;BME280;68988;49.000;21.242;2023-11-21T09:33:06;97996.94;;;23.11;42.83
57574;BME280;68988;49.000;21.242;2023-11-21T09:35:32;97997.44;;;23.07;42.83
57574;BME280;68988;49.000;21.242;2023-11-21T09:37:57;97996.13;;;23.10;42.96
57574;BME280;68988;49.000;21.242;2023-11-21T09:40:23;97997.75;;;23.11;42.93
57574;BME280;68988;49.000;21.242;2023-11-21T09:42:56;98005.50;;;23.13;43.05
57574;BME280;68988;49.000;21.242;2023-11-21T09:45:26;98002.00;;;23.17;43.15
57574;BME280;68988;49.000;21.242;2023-11-21T09:47:54;98001.16;;;23.17;43.25
57574;BME280;68988;49.000;21.242;2023-11-21T09:50:23;98011.88;;;23.17;43.29
57574;BME280;68988;49.000;21.242;2023-11-21T09:53:04;98009.72;;;23.19;43.28
57574;BME280;68988;49.000;21.242;2023-11-21T09:55:36;98009.72;;;23.19;43.40
57574;BME280;68988;49.000;21.242;2023-11-21T09:58:04;98024.41;;;23.21;43.56
57574;BME280;68988;49.000;21.242;2023-11-21T10:00:33;98017.47;;;23.20;43.64
57574;BME280;68988;49.000;21.242;2023-11-21T10:02:59;98012.91;;;23.21;43.70
57574;BME280;68988;49.000;21.242;2023-11-21T10:05:25;98016.38;;;23.21;43.68
57574;BME280;68988;49.000;21.242;2023-11-21T10:07:50;98022.50;;;23.27;43.79
57574;BME280;68988;49.000;21.242;2023-11-21T10:10:19;98019.31;;;23.25;43.56
57574;BME280;68988;49.000;21.242;2023-11-21T10:12:55;98015.56;;;23.26;43.68
57574;BME280;68988;49.000;21.242;2023-11-21T10:15:22;98015.00;;;23.29;41.85
57574;BME280;68988;49.000;21.242;2023-11-21T10:17:49;98017.66;;;23.29;41.51
57574;BME280;68988;49.000;21.242;2023-11-21T10:20:15;98016.66;;;23.25;41.75
57574;BME280;68988;49.000;21.242;2023-11-21T10:22:41;98016.38;;;23.27;41.48
57574;BME280;68988;49.000;21.242;2023-11-21T10:25:10;98017.66;;;23.29;41.04
57574;BME280;68988;49.000;21.242;2023-11-21T10:27:37;98022.22;;;23.29;41.15
57574;BME280;68988;49.000;21.242;2023-11-21T10:30:05;98017.94;;;23.28;41.28
57574;BME280;68988;49.000;21.242;2023-11-21T10:32:30;98021.16;;;23.30;41.27
57574;BME280;68988;49.000;21.242;2023-11-21T10:34:58;98010.69;;;23.33;41.23
57574;BME280;68988;49.000;21.242;2023-11-21T10:37:25;98011.50;;;23.34;41.26
57574;BME280;68988;49.000;21.242;2023-11-21T10:39:57;98012.31;;;23.34;41.41
57574;BME280;68988;49.000;21.242;2023-11-21T10:42:24;98009.34;;;23.36;41.56
57574;BME280;68988;49.000;21.242;2023-11-21T10:44:49;98010.94;;;23.37;41.71
57574;BME280;68988;49.000;21.242;2023-11-21T10:47:16;98008.81;;;23.39;41.79
57574;BME280;68988;49.000;21.242;2023-11-21T10:49:44;98004.00;;;23.36;41.83
57574;BME280;68988;49.000;21.242;2023-11-21T10:52:10;98003.44;;;23.39;41.80
57574;BME280;68988;49.000;21.242;2023-11-21T10:54:43;98003.69;;;23.42;41.72
57574;BME280;68988;49.000;21.242;2023-11-21T10:57:10;97989.78;;;23.40;41.92
57574;BME280;68988;49.000;21.242;2023-11-21T10:59:35;97990.81;;;23.45;41.95
57574;BME280;68988;49.000;21.242;2023-11-21T11:04:47;97997.53;;;23.42;42.06
57574;BME280;68988;49.000;21.242;2023-11-21T11:07:14;97990.53;;;23.46;42.07
57574;BME280;68988;49.000;21.242;2023-11-21T11:09:41;97987.59;;;23.48;42.31
57574;BME280;68988;49.000;21.242;2023-11-21T11:12:08;97983.31;;;23.47;42.37
57574;BME280;68988;49.000;21.242;2023-11-21T11:14:35;97984.91;;;23.48;42.28
57574;BME280;68988;49.000;21.242;2023-11-21T11:17:01;97989.47;;;23.47;42.71
57574;BME280;68988;49.000;21.242;2023-11-21T11:19:27;97988.13;;;23.50;42.64
57574;BME280;68988;49.000;21.242;2023-11-21T11:28:13;97986.75;;;23.52;42.70
57574;BME280;68988;49.000;21.242;2023-11-21T11:30:41;97988.56;;;23.57;42.75
57574;BME280;68988;49.000;21.242;2023-11-21T11:36:09;97993.13;;;23.56;42.80
57574;BME280;68988;49.000;21.242;2023-11-21T11:38:36;97993.91;;;23.62;42.74
57574;BME280;68988;49.000;21.242;2023-11-21T11:41:03;97996.88;;;23.60;42.76
57574;BME280;68988;49.000;21.242;2023-11-21T11:43:29;97995.53;;;23.58;42.97
57574;BME280;68988;49.000;21.242;2023-11-21T11:45:56;97993.66;;;23.58;42.74
57574;BME280;68988;49.000;21.242;2023-11-21T11:48:24;97989.56;;;23.66;42.94
57574;BME280;68988;49.000;21.242;2023-11-21T11:51:06;97985.88;;;23.62;43.03
57574;BME280;68988;49.000;21.242;2023-11-21T11:53:44;97990.97;;;23.58;42.90
57574;BME280;68988;49.000;21.242;2023-11-21T11:56:21;97980.28;;;23.58;43.05
57574;BME280;68988;49.000;21.242;2023-11-21T11:58:49;97987.78;;;23.56;43.08
57574;BME280;68988;49.000;21.242;2023-11-21T12:01:18;97988.56;;;23.62;42.98
57574;BME280;68988;49.000;21.242;2023-11-21T12:03:44;98003.00;;;23.61;42.98
57574;BME280;68988;49.000;21.242;2023-11-21T12:06:09;97994.19;;;23.60;43.09
57574;BME280;68988;49.000;21.242;2023-11-21T12:08:37;98005.13;;;23.64;43.03
57574;BME280;68988;49.000;21.242;2023-11-21T12:11:03;97998.44;;;23.62;42.95
57574;BME280;68988;49.000;21.242;2023-11-21T12:13:30;98004.34;;;23.64;42.77
57574;BME280;68988;49.000;21.242;2023-11-21T12:15:55;98005.13;;;23.64;43.25
57574;BME280;68988;49.000;21.242;2023-11-21T12:18:21;98005.13;;;23.64;43.22
57574;BME280;68988;49.000;21.242;2023-11-21T12:20:46;97997.09;;;23.64;43.31
57574;BME280;68988;49.000;21.242;2023-11-21T12:23:14;98005.13;;;23.64;43.44
57574;BME280;68988;49.000;21.242;2023-11-21T12:25:41;97999.78;;;23.64;43.00
57574;BME280;68988;49.000;21.242;2023-11-21T12:28:07;97998.69;;;23.65;43.38
57574;BME280;68988;49.000;21.242;2023-11-21T12:30:36;98009.91;;;23.67;43.49
57574;BME280;68988;49.000;21.242;2023-11-21T12:33:03;98011.53;;;23.68;43.53
57574;BME280;68988;49.000;21.242;2023-11-21T12:35:31;98010.72;;;23.68;43.49
57574;BME280;68988;49.000;21.242;2023-11-21T12:37:59;98002.16;;;23.66;43.47
57574;BME280;68988;49.000;21.242;2023-11-21T12:40:25;98009.13;;;23.67;43.44
57574;BME280;68988;49.000;21.242;2023-11-21T12:42:52;97996.53;;;23.67;44.01
57574;BME280;68988;49.000;21.242;2023-11-21T12:45:26;97999.72;;;23.69;43.72
57574;BME280;68988;49.000;21.242;2023-11-21T12:48:00;97998.13;;;23.68;43.59
57574;BME280;68988;49.000;21.242;2023-11-21T12:50:31;97993.34;;;23.65;43.70
57574;BME280;68988;49.000;21.242;2023-11-21T12:53:19;98006.72;;;23.65;43.70
57574;BME280;68988;49.000;21.242;2023-11-21T12:55:44;98004.84;;;23.66;43.58
57574;BME280;68988;49.000;21.242;2023-11-21T12:58:15;98008.03;;;23.68;43.71